createdAt,value
2019-04-14T00:02:42.429Z,19.73
2019-04-14T00:05:47.709Z,20.17
2019-04-14T00:08:52.233Z,18.80
2019-04-14T00:11:56.926Z,20.73
2019-04-14T00:15:00.605Z,20.97
2019-04-14T00:18:05.352Z,21.30
2019-04-14T00:21:09.465Z,20.60
2019-04-14T00:24:13.854Z,21.43
2019-04-14T00:27:17.546Z,21.00
2019-04-14T00:30:23.065Z,21.67
2019-04-14T00:33:28.242Z,20.10
2019-04-14T00:36:48.397Z,20.63
2019-04-14T00:39:53.510Z,20.73
2019-04-14T00:42:58.590Z,21.87
2019-04-14T00:46:04.336Z,21.93
2019-04-14T00:49:09.194Z,20.80
2019-04-14T00:52:12.999Z,19.57
2019-04-14T00:55:16.474Z,20.47
2019-04-14T00:58:19.921Z,20.67
2019-04-14T01:01:24.395Z,19.63
2019-04-14T01:04:28.018Z,20.77
2019-04-14T01:07:32.633Z,20.83
2019-04-14T01:10:36.787Z,19.73
2019-04-14T01:13:40.381Z,19.73
2019-04-14T01:16:45.102Z,20.03
2019-04-14T01:19:48.663Z,21.13
2019-04-14T01:22:53.177Z,20.37
2019-04-14T01:25:56.813Z,19.77
2019-04-14T01:29:01.389Z,21.23
2019-04-14T01:32:05.031Z,19.80
2019-04-14T01:35:09.648Z,20.63
2019-04-14T01:38:13.246Z,19.40
2019-04-14T01:41:17.137Z,20.23
2019-04-14T01:44:20.644Z,19.33
2019-04-14T01:47:24.873Z,19.27
2019-04-14T01:50:32.737Z,21.17
2019-04-14T01:53:40.507Z,20.57
2019-04-14T01:56:58.131Z,19.40
2019-04-14T02:00:22.746Z,19.60
2019-04-14T02:03:26.376Z,19.97
2019-04-14T02:06:31.002Z,19.47
2019-04-14T02:09:35.762Z,18.33
2019-04-14T02:12:39.485Z,19.80
2019-04-14T02:15:44.166Z,19.43
2019-04-14T02:18:50.629Z,20.20
2019-04-14T02:21:54.012Z,19.77
2019-04-14T02:24:57.694Z,19.10
2019-04-14T02:28:02.220Z,18.97
2019-04-14T02:31:18.017Z,19.20
2019-04-14T02:34:41.653Z,20.13
2019-04-14T02:37:44.774Z,20.07
2019-04-14T02:40:53.289Z,18.93
2019-04-14T02:47:12.820Z,20.50
2019-04-14T02:53:07.920Z,19.37
2019-04-14T02:56:16.369Z,18.43
2019-04-14T02:59:36.782Z,19.63
2019-04-14T03:02:40.875Z,17.23
2019-04-14T03:05:26.494Z,19.33
2019-04-14T03:08:52.102Z,18.30
2019-04-14T03:11:44.343Z,19.13
2019-04-14T03:14:47.746Z,19.23
2019-04-14T03:21:15.892Z,18.97
2019-04-14T03:24:32.739Z,18.20
2019-04-14T03:27:50.550Z,19.03
2019-04-14T03:34:21.399Z,18.77
2019-04-14T03:37:39.623Z,18.43
2019-04-14T03:40:18.327Z,18.53
2019-04-14T03:43:24.486Z,19.13
2019-04-14T03:49:40.674Z,18.80
2019-04-14T03:52:53.228Z,18.37
2019-04-14T03:55:54.424Z,18.90
2019-04-14T03:58:51.862Z,18.93
2019-04-14T04:01:56.453Z,20.23
2019-04-14T04:05:00.194Z,18.67
2019-04-14T04:08:04.765Z,18.67
2019-04-14T04:11:08.595Z,18.57
2019-04-14T04:14:12.066Z,18.80
2019-04-14T04:17:36.287Z,18.87
2019-04-14T04:20:50.547Z,18.50
2019-04-14T04:23:59.677Z,19.50
2019-04-14T04:27:07.517Z,17.77
2019-04-14T04:30:12.764Z,17.43
2019-04-14T04:33:20.583Z,18.37
2019-04-14T04:36:42.166Z,17.90
2019-04-14T04:39:47.578Z,19.63
2019-04-14T04:42:51.091Z,17.90
2019-04-14T04:45:55.878Z,17.17
2019-04-14T04:49:08.265Z,18.40
2019-04-14T04:52:04.778Z,17.80
2019-04-14T04:55:08.884Z,16.10
2019-04-14T04:58:12.997Z,16.67
2019-04-14T05:01:16.745Z,17.40
2019-04-14T05:04:20.410Z,17.00
2019-04-14T05:07:25.146Z,16.73
2019-04-14T05:10:30.670Z,16.03
2019-04-14T05:13:36.150Z,15.90
2019-04-14T05:16:39.967Z,16.67
2019-04-14T05:19:43.610Z,16.83
2019-04-14T05:22:47.168Z,15.50
2019-04-14T05:25:51.673Z,15.10
2019-04-14T05:28:55.363Z,15.53
2019-04-14T05:31:59.925Z,16.43
2019-04-14T05:35:05.213Z,15.13
2019-04-14T05:38:08.766Z,14.97
2019-04-14T05:41:12.209Z,13.93
2019-04-14T05:44:16.465Z,14.03
2019-04-14T05:47:20.026Z,12.10
2019-04-14T05:50:23.471Z,11.33
2019-04-14T05:53:26.945Z,11.63
2019-04-14T05:56:31.650Z,12.13
2019-04-14T05:59:35.547Z,12.63
2019-04-14T06:02:39.946Z,11.53
2019-04-14T06:05:43.538Z,10.90
2019-04-14T06:08:47.001Z,11.60
2019-04-14T06:11:50.439Z,11.33
2019-04-14T06:14:53.969Z,10.53
2019-04-14T06:17:57.438Z,11.50
2019-04-14T06:21:00.910Z,10.80
2019-04-14T06:24:04.361Z,11.13
2019-04-14T06:27:07.837Z,10.70
2019-04-14T06:30:21.833Z,10.57
2019-04-14T06:33:26.913Z,11.77
2019-04-14T06:36:38.224Z,11.00
2019-04-14T06:39:49.482Z,11.67
2019-04-14T06:42:52.939Z,10.80
2019-04-14T06:45:56.417Z,10.77
2019-04-14T06:48:59.891Z,11.23
2019-04-14T06:52:03.362Z,10.43
2019-04-14T06:55:06.793Z,10.63
2019-04-14T06:58:10.297Z,10.97
2019-04-14T07:01:13.742Z,11.40
2019-04-14T07:04:17.214Z,11.50
2019-04-14T07:07:20.683Z,11.30
2019-04-14T07:10:24.157Z,10.60
2019-04-14T07:13:27.609Z,12.73
2019-04-14T07:16:31.146Z,10.87
2019-04-14T07:19:34.601Z,10.77
2019-04-14T07:22:38.095Z,10.67
2019-04-14T07:25:41.603Z,11.23
2019-04-14T07:28:56.217Z,11.37
2019-04-14T07:32:08.351Z,11.73
2019-04-14T07:35:19.477Z,11.53
2019-04-14T07:38:24.564Z,11.23
2019-04-14T07:41:32.415Z,11.23
2019-04-14T07:44:52.791Z,11.40
2019-04-14T07:48:03.418Z,11.47
2019-04-14T07:51:30.270Z,13.03
2019-04-14T07:54:47.322Z,12.30
2019-04-14T07:57:55.082Z,11.80
2019-04-14T08:01:02.897Z,11.40
2019-04-14T08:04:13.731Z,11.63
2019-04-14T08:07:17.206Z,11.73
2019-04-14T08:10:20.658Z,12.60
2019-04-14T08:13:24.295Z,12.77
2019-04-14T08:16:27.761Z,12.30
2019-04-14T08:19:31.247Z,14.43
2019-04-14T08:22:34.765Z,12.63
2019-04-14T08:25:38.441Z,12.97
2019-04-14T08:28:41.881Z,12.87
2019-04-14T08:31:45.354Z,13.27
2019-04-14T08:34:48.841Z,12.73
2019-04-14T08:37:52.274Z,13.80
2019-04-14T08:40:55.746Z,13.13
2019-04-14T08:44:00.860Z,13.77
2019-04-14T08:47:05.947Z,13.77
2019-04-14T08:50:23.342Z,18.27
2019-04-14T08:53:46.804Z,13.30
2019-04-14T08:56:51.889Z,13.60
2019-04-14T08:59:57.094Z,13.80
2019-04-14T09:03:14.415Z,14.33
2019-04-14T09:06:19.884Z,13.50
2019-04-14T09:09:25.001Z,13.53
2019-04-14T09:12:30.093Z,13.47
2019-04-14T09:15:33.561Z,14.37
2019-04-14T09:18:37.038Z,14.50
2019-04-14T09:21:40.487Z,15.33
2019-04-14T09:24:43.951Z,14.90
2019-04-14T09:27:47.418Z,15.07
2019-04-14T09:30:50.886Z,16.60
2019-04-14T09:33:54.350Z,16.77
2019-04-14T09:36:57.830Z,14.67
2019-04-14T09:40:01.278Z,15.00
2019-04-14T09:43:04.922Z,14.10
2019-04-14T09:46:08.378Z,13.57
2019-04-14T09:49:11.873Z,14.13
2019-04-14T09:52:15.313Z,17.67
2019-04-14T09:55:18.779Z,15.07
2019-04-14T09:58:22.221Z,14.13
2019-04-14T10:01:25.697Z,14.47
2019-04-14T10:04:29.158Z,14.97
2019-04-14T10:07:32.634Z,14.47
2019-04-14T10:10:36.146Z,15.20
2019-04-14T10:13:39.698Z,14.50
2019-04-14T10:16:43.142Z,15.67
2019-04-14T10:19:46.605Z,15.90
2019-04-14T10:22:50.051Z,14.50
2019-04-14T10:25:53.531Z,15.20
2019-04-14T10:28:56.977Z,15.87
2019-04-14T10:32:00.497Z,15.47
2019-04-14T10:35:05.017Z,15.83
2019-04-14T10:38:08.502Z,15.10
2019-04-14T10:41:12.003Z,15.53
2019-04-14T10:44:15.482Z,15.67
2019-04-14T10:47:18.922Z,16.13
2019-04-14T10:50:30.609Z,16.57
2019-04-14T10:53:27.558Z,17.13
2019-04-14T10:56:31.034Z,16.10
2019-04-14T10:59:34.474Z,17.83
2019-04-14T11:02:37.950Z,16.53
2019-04-14T11:05:43.031Z,17.40
2019-04-14T11:08:46.489Z,17.20
2019-04-14T11:11:49.925Z,17.43
2019-04-14T11:14:53.395Z,17.97
2019-04-14T11:17:56.844Z,16.37
2019-04-14T11:21:00.313Z,15.87
2019-04-14T11:24:03.748Z,18.00
2019-04-14T11:27:07.217Z,18.00
2019-04-14T11:30:12.698Z,17.63
2019-04-14T11:33:29.714Z,17.27
2019-04-14T11:36:34.838Z,16.67
2019-04-14T11:39:38.269Z,16.73
2019-04-14T11:42:51.762Z,16.77
2019-04-14T11:45:46.993Z,16.50
2019-04-14T11:48:50.462Z,17.77
2019-04-14T11:51:55.483Z,16.57
2019-04-14T11:54:59.177Z,16.30
2019-04-14T11:58:02.617Z,16.17
2019-04-14T12:01:07.728Z,15.90
2019-04-14T12:04:29.387Z,16.37
2019-04-14T12:07:34.490Z,17.53
2019-04-14T12:10:37.941Z,17.50
2019-04-14T12:13:41.401Z,17.30
2019-04-14T12:16:44.854Z,16.27
2019-04-14T12:19:48.325Z,16.33
2019-04-14T12:22:51.761Z,15.17
2019-04-14T12:26:04.673Z,15.80
2019-04-14T12:29:03.056Z,15.43
2019-04-14T12:32:06.910Z,13.83
2019-04-14T12:35:11.290Z,14.30
2019-04-14T12:38:14.759Z,12.97
2019-04-14T12:41:19.870Z,14.87
2019-04-14T12:44:30.914Z,13.40
2019-04-14T12:47:52.194Z,13.73
2019-04-14T12:50:57.269Z,12.00
2019-04-14T12:54:00.744Z,12.17
2019-04-14T12:57:04.261Z,12.77
2019-04-14T13:00:09.694Z,13.33
2019-04-14T13:03:13.130Z,13.17
2019-04-14T13:06:16.611Z,12.07
2019-04-14T13:09:20.045Z,11.17
2019-04-14T13:12:23.518Z,10.83
2019-04-14T13:15:37.561Z,10.77
2019-04-14T13:18:41.023Z,11.53
2019-04-14T13:21:44.494Z,10.20
2019-04-14T13:24:47.929Z,10.80
2019-04-14T13:27:51.675Z,9.40
2019-04-14T13:30:55.105Z,9.90
2019-04-14T13:33:58.569Z,9.73
2019-04-14T13:37:02.037Z,9.43
2019-04-14T13:40:06.411Z,9.17
2019-04-14T13:43:10.538Z,7.43
2019-04-14T13:46:13.982Z,8.43
2019-04-14T13:49:18.296Z,9.77
2019-04-14T13:52:21.735Z,8.70
2019-04-14T13:55:25.205Z,8.97
2019-04-14T13:58:28.638Z,8.60
2019-04-14T14:01:32.094Z,7.33
2019-04-14T14:04:35.554Z,8.03
2019-04-14T14:07:38.982Z,7.13
2019-04-14T14:10:42.442Z,6.90
2019-04-14T14:13:47.527Z,7.83
2019-04-14T14:17:09.293Z,9.67
2019-04-14T14:20:23.034Z,6.87
2019-04-14T14:23:30.909Z,6.27
2019-04-14T14:26:45.206Z,6.33
2019-04-14T14:29:48.670Z,6.23
2019-04-14T14:32:52.106Z,6.17
2019-04-14T14:35:55.569Z,5.87
2019-04-14T14:38:58.997Z,5.73
2019-04-14T14:42:02.470Z,5.43
2019-04-14T14:45:17.645Z,5.03
2019-04-14T14:48:25.669Z,5.30
2019-04-14T14:51:45.742Z,4.93
2019-04-14T14:54:49.185Z,5.13
2019-04-14T14:57:52.621Z,5.70
2019-04-14T15:00:56.287Z,4.77
2019-04-14T15:03:59.723Z,5.27
2019-04-14T15:07:03.296Z,4.60
2019-04-14T15:10:07.626Z,3.93
2019-04-14T15:13:11.090Z,5.50
2019-04-14T15:16:14.525Z,4.63
2019-04-14T15:19:17.994Z,4.60
2019-04-14T15:22:21.435Z,4.30
2019-04-14T15:25:24.897Z,7.10
2019-04-14T15:28:28.405Z,4.00
2019-04-14T15:31:31.869Z,3.73
2019-04-14T15:34:35.305Z,4.17
2019-04-14T15:37:38.786Z,4.60
2019-04-14T15:40:42.221Z,3.80
2019-04-14T15:43:45.681Z,4.47
2019-04-14T15:46:49.122Z,4.40
2019-04-14T15:49:52.593Z,4.27
2019-04-14T15:52:56.128Z,4.30
2019-04-14T15:56:00.100Z,4.17
2019-04-14T15:59:14.326Z,4.80
2019-04-14T16:02:36.051Z,4.37
2019-04-14T16:05:41.423Z,4.37
2019-04-14T16:08:46.804Z,4.40
2019-04-14T16:11:54.958Z,4.47
2019-04-14T16:15:00.304Z,4.30
2019-04-14T16:18:21.714Z,4.70
2019-04-14T16:21:25.197Z,4.97
2019-04-14T16:24:28.662Z,5.30
2019-04-14T16:27:50.394Z,4.73
2019-04-14T16:30:58.413Z,5.00
2019-04-14T16:34:03.519Z,4.87
2019-04-14T16:37:06.949Z,4.90
2019-04-14T16:40:11.257Z,5.10
2019-04-14T16:43:14.689Z,5.87
2019-04-14T16:46:18.159Z,5.63
2019-04-14T16:49:21.595Z,5.70
2019-04-14T16:52:26.697Z,6.10
2019-04-14T16:55:37.718Z,5.70
2019-04-14T16:58:42.833Z,6.10
2019-04-14T17:01:46.923Z,6.50
2019-04-14T17:04:50.393Z,6.63
2019-04-14T17:07:53.899Z,7.30
2019-04-14T17:10:57.442Z,7.37
2019-04-14T17:14:08.399Z,6.70
2019-04-14T17:17:19.301Z,6.40
2019-04-14T17:20:24.385Z,7.70
2019-04-14T17:23:45.981Z,7.87
2019-04-14T17:27:00.110Z,6.73
2019-04-14T17:30:06.663Z,6.13
2019-04-14T17:33:14.431Z,6.60
2019-04-14T17:36:19.527Z,6.70
2019-04-14T17:39:27.615Z,7.00
2019-04-14T17:42:48.845Z,6.67
2019-04-14T17:46:02.962Z,7.60
2019-04-14T17:49:17.168Z,7.33
2019-04-14T17:52:37.114Z,7.73
2019-04-14T17:55:50.077Z,7.70
2019-04-14T17:58:57.937Z,6.93
2019-04-14T18:02:03.030Z,8.60
2019-04-14T18:05:08.526Z,8.20
2019-04-14T18:08:13.633Z,8.00
2019-04-14T18:11:34.899Z,8.23
2019-04-14T18:14:40.001Z,9.10
2019-04-14T18:17:45.078Z,9.37
2019-04-14T18:20:50.183Z,9.27
2019-04-14T18:23:53.621Z,9.17
2019-04-14T18:26:57.077Z,8.87
2019-04-14T18:30:20.285Z,10.07
2019-04-14T18:33:34.314Z,8.37
2019-04-14T18:36:39.422Z,9.10
2019-04-14T18:40:01.263Z,10.13
2019-04-14T18:43:09.510Z,10.77
2019-04-14T18:46:29.597Z,10.60
2019-04-14T18:49:43.908Z,10.30
2019-04-14T18:52:54.818Z,9.40
2019-04-14T18:55:59.889Z,10.77
2019-04-14T18:59:21.250Z,11.37
2019-04-14T19:02:24.689Z,11.17
2019-04-14T19:05:28.160Z,11.47
2019-04-14T19:08:31.597Z,10.83
2019-04-14T19:11:36.710Z,12.13
2019-04-14T19:14:41.442Z,11.20
2019-04-14T19:17:55.793Z,11.67
2019-04-14T19:21:00.902Z,10.83
2019-04-14T19:24:04.369Z,11.67
2019-04-14T19:27:07.816Z,12.63
2019-04-14T19:30:11.710Z,11.80
2019-04-14T19:33:15.181Z,11.83
2019-04-14T19:36:18.645Z,12.67
2019-04-14T19:39:22.109Z,12.47
2019-04-14T19:42:25.553Z,12.03
2019-04-14T19:45:29.017Z,13.27
2019-04-14T19:48:32.461Z,11.80
2019-04-14T19:51:35.971Z,11.93
2019-04-14T19:54:39.418Z,13.33
2019-04-14T19:57:42.880Z,11.97
2019-04-14T20:00:46.350Z,13.27
2019-04-14T20:03:49.793Z,15.43
2019-04-14T20:06:53.254Z,12.43
2019-04-14T20:09:56.726Z,12.73
2019-04-14T20:13:00.163Z,13.77
2019-04-14T20:16:20.354Z,13.20
2019-04-14T20:19:28.030Z,14.10
2019-04-14T20:22:42.214Z,13.60
2019-04-14T20:26:03.785Z,15.57
2019-04-14T20:29:08.949Z,15.33
2019-04-14T20:32:17.195Z,14.23
2019-04-14T20:35:20.654Z,14.47
2019-04-14T20:38:24.093Z,14.73
2019-04-14T20:41:27.581Z,16.67
2019-04-14T20:44:31.027Z,15.83
2019-04-14T20:47:34.489Z,14.83
2019-04-14T20:50:37.958Z,14.10
2019-04-14T20:53:41.389Z,14.47
2019-04-14T20:56:44.865Z,14.00
2019-04-14T20:59:48.334Z,14.57
2019-04-14T21:03:08.498Z,15.13
2019-04-14T21:06:38.830Z,16.23
2019-04-14T21:09:43.986Z,17.03
2019-04-14T21:12:49.090Z,15.10
2019-04-14T21:15:54.180Z,15.20
2019-04-14T21:18:59.293Z,15.20
2019-04-14T21:22:07.131Z,16.77
2019-04-14T21:25:12.221Z,15.93
2019-04-14T21:28:22.765Z,16.50
2019-04-14T21:31:27.917Z,17.07
2019-04-14T21:34:33.034Z,17.20
2019-04-14T21:37:40.830Z,17.20
2019-04-14T21:40:46.145Z,17.60
2019-04-14T21:43:49.593Z,20.53
2019-04-14T21:46:53.143Z,21.67
2019-04-14T21:49:56.802Z,19.07
2019-04-14T21:53:00.257Z,18.80
2019-04-14T21:56:13.227Z,18.67
2019-04-14T21:59:10.602Z,18.77
2019-04-14T22:02:21.415Z,19.27
2019-04-14T22:05:44.736Z,18.83
2019-04-14T22:08:50.111Z,19.77
2019-04-14T22:11:53.796Z,20.20
2019-04-14T22:14:57.237Z,22.83
2019-04-14T22:18:00.778Z,22.20
2019-04-14T22:21:04.385Z,22.47
2019-04-14T22:24:07.857Z,22.53
2019-04-14T22:27:11.297Z,22.43
2019-04-14T22:30:15.074Z,22.67
2019-04-14T22:33:18.517Z,22.47
2019-04-14T22:36:21.982Z,23.00
2019-04-14T22:39:25.465Z,22.57
2019-04-14T22:42:28.898Z,22.87
2019-04-14T22:45:32.445Z,23.70
2019-04-14T22:48:35.910Z,22.83
2019-04-14T22:51:39.342Z,23.37
2019-04-14T22:54:42.834Z,22.53
2019-04-14T22:57:46.338Z,24.30
2019-04-14T23:00:51.437Z,20.43
2019-04-14T23:04:05.422Z,17.57
2019-04-14T23:07:13.421Z,20.53
2019-04-14T23:10:18.517Z,21.00
2019-04-14T23:13:32.533Z,21.93
2019-04-14T23:16:37.626Z,22.67
2019-04-14T23:19:59.177Z,23.43
2019-04-14T23:23:04.288Z,23.23
2019-04-14T23:26:07.746Z,24.30
2019-04-14T23:29:11.226Z,22.93
2019-04-14T23:32:14.685Z,23.63
2019-04-14T23:35:18.146Z,23.27
2019-04-14T23:38:21.594Z,24.23
2019-04-14T23:41:25.053Z,24.37
2019-04-14T23:44:28.502Z,24.53
2019-04-14T23:47:31.973Z,25.07
2019-04-14T23:50:35.437Z,24.20
2019-04-14T23:53:38.895Z,24.10
2019-04-14T23:56:42.358Z,23.87
2019-04-14T23:59:45.822Z,24.87
